Hlavní strana
METAR-TAF:

METAR-TAF

Letiště :

St. Moritz, Švýcarsko

zeměpisná šířka: 46-32-03N, zeměpisná délka: 9-53-03E, výška: 1707 m

Aktuální stav počasí

Zpráva byla vytvořena před 22 minutami, v 01:50 UTC
vítr z různých směrů 1 kt
Teplota -23°C
Vlhkost vzduchu 84%
Tlak 1012 hPa
Viditelnost: 0500 m
kouřmo

METAR: LSZS 130150Z AUTO VRB01KT 0500 BR NCD M23/M25 Q1012

Čas: 03:12 (02:12 UTC)

Předpověď počasí

Zpráva byla vytvořena před 11 hodinami a 47 minutami, v 14:25 UTC
Předpověď platná od 12 v 15 UTC do 12 v 24 UTC
vítr z různých směrů 3 kt
Viditelnost 10 km a více
Žádná oblačnost pod 1500 m, nevyskytují se cumulonimby.

TAF: LSZS 121425Z 1215/1224 VRB03KT CAVOK TXM12/1215Z

Stav a předpovědi počasí z více než 4 000 letišť (zprávy METAR a TAF).

Červené a žluté tečky na mapě představují dostupné meteorologické stanice.

Když kurzor umístíte na tečku, zobrazí se název stanice.

Pak kliknutím zobrazíte stav a předpověď počasí.

Chcete-li změnit mapu, kliknutím na zelené tlačítko se znaménkem +mapu přiblížíte, kliknutím na zelené tlačítko se znaménkem – mapu oddálíte a kliknutím na zelené šipky přejdete na sousední mapy.


METAR-TAF: